Time;durP1;ratioP1;P1;durP2;ratioP2;P2;SDS_P1;SDS_P2;PMS_P1;PMS_P2;Temp;Humidity;BMP_temperature;BMP_pressure;BME280_temperature;BME280_humidity;BME280_pressure;Samples;Min_cycle;Max_cycle;Signal;HPM_P1;HPM_P2
2022/08/14 00:00:13;;;;;;;10.82;5.93;;;27.80;45.90;;;;;;5026320;28;20095;-63
2022/08/14 00:02:39;;;;;;;10.20;5.95;;;27.70;45.90;;;;;;5026836;28;20037;-63
2022/08/14 00:05:07;;;;;;;11.07;5.90;;;27.80;46.00;;;;;;5025911;28;20033;-63
2022/08/14 00:07:34;;;;;;;11.18;6.03;;;27.80;46.00;;;;;;5027122;28;20097;-63
2022/08/14 00:10:02;;;;;;;11.65;5.60;;;27.70;46.00;;;;;;5027106;28;20033;-63
2022/08/14 00:12:28;;;;;;;10.50;5.60;;;27.70;46.00;;;;;;5022878;28;20042;-63
2022/08/14 00:14:54;;;;;;;11.10;5.68;;;27.70;46.10;;;;;;5024337;28;20017;-63
2022/08/14 00:17:20;;;;;;;10.57;5.47;;;27.70;47.20;;;;;;5025773;28;20143;-63
2022/08/14 00:19:45;;;;;;;10.27;5.82;;;27.70;46.20;;;;;;5025765;28;20072;-63
2022/08/14 00:22:17;;;;;;;10.57;5.85;;;27.70;46.20;;;;;;5024716;28;20040;-63
2022/08/14 00:24:43;;;;;;;10.93;5.60;;;27.70;46.20;;;;;;5026656;28;20037;-63
2022/08/14 00:27:09;;;;;;;10.15;5.78;;;27.70;46.40;;;;;;5026858;28;20057;-63
2022/08/14 00:29:35;;;;;;;9.63;5.47;;;27.70;46.40;;;;;;5025825;28;20103;-63
2022/08/14 00:32:00;;;;;;;10.45;5.90;;;27.70;46.40;;;;;;5024701;28;20091;-63
2022/08/14 00:34:26;;;;;;;10.75;5.47;;;27.70;46.40;;;;;;5025978;28;20030;-63
2022/08/14 00:36:51;;;;;;;9.43;5.65;;;27.70;46.50;;;;;;5023992;28;20112;-63
2022/08/14 00:39:17;;;;;;;9.80;5.38;;;27.70;46.50;;;;;;5027136;28;20029;-63
2022/08/14 00:41:43;;;;;;;11.10;5.68;;;27.70;46.60;;;;;;5027094;28;20044;-63
2022/08/14 00:44:09;;;;;;;9.07;5.43;;;27.70;46.60;;;;;;5027232;28;20063;-63
2022/08/14 00:46:36;;;;;;;9.73;5.40;;;27.60;46.60;;;;;;5025622;28;20453;-63
2022/08/14 00:49:02;;;;;;;11.13;5.97;;;27.60;46.70;;;;;;5027498;28;20030;-63
2022/08/14 00:51:31;;;;;;;10.90;6.13;;;27.60;46.70;;;;;;5025795;28;20204;-64
2022/08/14 00:53:57;;;;;;;10.02;5.80;;;27.60;46.70;;;;;;5023197;28;20364;-64
2022/08/14 00:56:23;;;;;;;9.93;5.45;;;27.60;46.80;;;;;;5025301;28;20059;-64
2022/08/14 00:58:49;;;;;;;10.45;5.53;;;27.60;46.80;;;;;;5021925;28;20447;-64
2022/08/14 01:01:17;;;;;;;9.63;5.43;;;27.60;46.80;;;;;;5026308;28;20489;-63
2022/08/14 01:03:43;;;;;;;10.30;5.50;;;27.60;46.90;;;;;;5024347;28;20029;-64
2022/08/14 01:06:10;;;;;;;9.32;5.40;;;27.60;46.90;;;;;;5026965;28;20039;-63
2022/08/14 01:08:37;;;;;;;11.15;5.47;;;27.60;47.10;;;;;;5024437;28;20040;-63
2022/08/14 01:11:03;;;;;;;9.98;5.18;;;27.60;47.10;;;;;;5049095;28;20495;-64
2022/08/14 01:13:34;;;;;;;9.77;5.30;;;27.60;47.00;;;;;;5026344;28;20033;-64
2022/08/14 01:16:01;;;;;;;8.63;5.55;;;27.50;47.00;;;;;;5025286;28;20029;-63
2022/08/14 01:21:15;;;;;;;10.15;5.65;;;27.50;47.10;;;;;;5025595;28;20087;-63
2022/08/14 01:23:49;;;;;;;9.20;5.20;;;27.50;47.10;;;;;;5026238;28;20079;-64
2022/08/14 01:26:19;;;;;;;9.57;5.30;;;27.50;47.10;;;;;;5024980;28;20056;-63
2022/08/14 01:28:45;;;;;;;10.30;5.25;;;27.60;47.30;;;;;;5026119;28;20108;-63
2022/08/14 01:31:14;;;;;;;9.23;5.15;;;27.50;47.20;;;;;;5025292;28;20037;-63
2022/08/14 01:33:43;;;;;;;8.95;5.10;;;27.50;47.30;;;;;;5026505;28;20021;-63
2022/08/14 01:36:09;;;;;;;10.07;5.10;;;27.50;47.30;;;;;;5025746;28;20099;-63
2022/08/14 01:38:35;;;;;;;10.20;5.07;;;27.50;47.40;;;;;;5024399;28;20056;-63
2022/08/14 01:41:06;;;;;;;9.55;5.45;;;27.50;47.30;;;;;;5024870;28;20057;-63
2022/08/14 01:43:37;;;;;;;9.38;5.65;;;27.50;47.40;;;;;;5026031;28;20022;-63
2022/08/14 01:46:03;;;;;;;9.05;4.85;;;27.50;47.50;;;;;;5024480;28;20038;-63
2022/08/14 01:48:32;;;;;;;10.02;5.13;;;27.50;47.50;;;;;;5026105;28;20414;-63
2022/08/14 01:51:01;;;;;;;8.73;4.70;;;27.50;47.50;;;;;;5024525;28;20046;-63
2022/08/14 01:53:27;;;;;;;9.52;5.32;;;27.50;47.50;;;;;;5025074;28;20022;-63
2022/08/14 01:55:57;;;;;;;9.40;5.00;;;27.40;47.50;;;;;;5024307;28;20041;-63
2022/08/14 01:58:26;;;;;;;11.57;5.38;;;27.40;47.50;;;;;;5024161;28;20030;-63
2022/08/14 02:00:55;;;;;;;9.70;5.05;;;27.40;47.60;;;;;;5026403;28;20095;-63
2022/08/14 02:03:27;;;;;;;10.20;4.80;;;27.40;47.60;;;;;;5025073;28;20520;-63
2022/08/14 02:05:58;;;;;;;8.25;5.10;;;27.40;47.70;;;;;;5025126;28;20104;-63
2022/08/14 02:08:31;;;;;;;9.02;4.95;;;27.50;47.80;;;;;;5025176;28;20041;-64
2022/08/14 02:11:16;;;;;;;8.65;4.82;;;27.40;47.70;;;;;;5027058;28;20047;-64
2022/08/14 02:13:42;;;;;;;9.13;4.90;;;27.40;47.70;;;;;;5030447;28;20061;-64
2022/08/14 02:16:09;;;;;;;9.35;5.40;;;27.40;47.80;;;;;;5027128;28;20028;-63
2022/08/14 02:18:35;;;;;;;8.57;4.68;;;27.40;47.80;;;;;;5027783;28;20018;-63
2022/08/14 02:21:03;;;;;;;8.52;4.72;;;27.40;47.80;;;;;;5029266;28;20040;-64
2022/08/14 02:23:30;;;;;;;9.63;5.28;;;27.40;47.90;;;;;;5028538;28;20029;-63
2022/08/14 02:25:56;;;;;;;8.23;5.00;;;27.30;47.90;;;;;;5029573;28;20038;-63
2022/08/14 02:28:22;;;;;;;9.15;4.90;;;27.30;48.00;;;;;;5029334;28;20036;-63
2022/08/14 02:30:48;;;;;;;9.43;5.13;;;27.30;47.90;;;;;;5029717;28;20030;-64
2022/08/14 02:33:13;;;;;;;8.63;5.00;;;27.30;48.00;;;;;;5027936;28;20033;-63
2022/08/14 02:35:41;;;;;;;10.88;4.88;;;27.30;48.00;;;;;;5029490;28;20489;-64
2022/08/14 02:38:07;;;;;;;8.70;5.00;;;27.30;48.00;;;;;;5029033;28;20115;-63
2022/08/14 02:40:33;;;;;;;8.10;4.75;;;27.30;48.00;;;;;;5028433;28;20022;-63
2022/08/14 02:42:59;;;;;;;9.23;5.10;;;27.30;48.10;;;;;;5028702;28;20029;-63
2022/08/14 02:45:27;;;;;;;8.45;5.00;;;27.30;48.00;;;;;;5027982;28;20387;-63
2022/08/14 02:47:53;;;;;;;8.05;4.65;;;27.30;48.10;;;;;;5027430;28;20026;-63
2022/08/14 02:50:20;;;;;;;9.00;4.97;;;27.30;48.10;;;;;;5028560;28;20043;-64
2022/08/14 02:52:45;;;;;;;8.10;4.63;;;27.30;48.10;;;;;;5029168;28;20033;-63
2022/08/14 02:55:11;;;;;;;9.63;4.95;;;27.30;48.20;;;;;;5028213;28;20037;-63
2022/08/14 02:57:37;;;;;;;8.35;4.70;;;27.30;48.20;;;;;;5028923;28;20116;-63
2022/08/14 03:00:04;;;;;;;9.45;5.22;;;27.30;48.20;;;;;;5027624;28;20053;-64
2022/08/14 03:02:32;;;;;;;9.32;4.60;;;27.30;48.20;;;;;;5027708;28;20033;-63
2022/08/14 03:04:58;;;;;;;7.80;4.68;;;27.30;48.30;;;;;;5027560;28;20029;-64
2022/08/14 03:07:24;;;;;;;8.85;5.03;;;27.30;48.30;;;;;;5027530;28;20025;-63
2022/08/14 03:09:50;;;;;;;8.98;4.75;;;27.30;48.30;;;;;;5028592;28;20445;-63
2022/08/14 03:12:16;;;;;;;8.15;4.80;;;27.30;48.30;;;;;;5028078;28;20038;-64
2022/08/14 03:14:48;;;;;;;8.77;4.55;;;27.30;48.40;;;;;;5025875;28;20026;-64
2022/08/14 03:17:14;;;;;;;8.30;4.30;;;27.30;48.40;;;;;;5028179;28;20545;-63
2022/08/14 03:19:40;;;;;;;9.70;4.63;;;27.20;48.30;;;;;;5026681;28;20029;-64
2022/08/14 03:22:06;;;;;;;8.63;4.45;;;27.20;48.40;;;;;;5027122;28;20533;-64
2022/08/14 03:24:32;;;;;;;7.97;4.70;;;27.20;48.40;;;;;;5027735;28;20021;-63
2022/08/14 03:26:57;;;;;;;8.68;4.68;;;27.20;48.50;;;;;;5028424;28;20426;-64
2022/08/14 03:29:23;;;;;;;7.85;4.60;;;27.20;48.50;;;;;;5028517;28;20095;-64
2022/08/14 03:31:50;;;;;;;8.88;4.60;;;27.20;48.50;;;;;;5026874;28;20150;-64
2022/08/14 03:34:17;;;;;;;8.07;4.50;;;27.20;48.50;;;;;;5027438;28;20037;-64
2022/08/14 03:36:43;;;;;;;8.32;4.45;;;27.20;48.50;;;;;;5027430;28;20024;-64
2022/08/14 03:39:09;;;;;;;7.55;4.63;;;27.20;48.60;;;;;;5028762;28;20026;-64
2022/08/14 03:41:35;;;;;;;8.32;4.43;;;27.20;48.60;;;;;;5027941;28;20033;-64
2022/08/14 03:44:03;;;;;;;7.97;4.40;;;27.20;48.60;;;;;;5027856;28;20025;-63
2022/08/14 03:46:30;;;;;;;8.73;4.63;;;27.20;48.60;;;;;;5026980;28;20021;-64
2022/08/14 03:48:56;;;;;;;7.35;4.32;;;27.20;48.70;;;;;;5027917;28;20068;-64
2022/08/14 03:51:26;;;;;;;7.28;4.07;;;27.10;48.60;;;;;;5026126;28;20065;-64
2022/08/14 03:53:53;;;;;;;6.93;4.20;;;27.10;48.60;;;;;;5029088;28;20025;-63
2022/08/14 03:56:19;;;;;;;7.40;4.30;;;27.10;48.60;;;;;;5026355;28;20069;-64
2022/08/14 03:58:54;;;;;;;8.73;4.40;;;27.10;48.70;;;;;;5027728;28;20532;-64
2022/08/14 04:01:22;;;;;;;7.85;4.25;;;27.10;48.70;;;;;;5026660;28;20052;-64
2022/08/14 04:03:48;;;;;;;8.45;4.43;;;27.10;48.70;;;;;;5025232;28;20534;-64
2022/08/14 04:06:15;;;;;;;8.18;4.60;;;27.10;48.70;;;;;;5027511;28;20105;-64
2022/08/14 04:08:41;;;;;;;8.95;4.82;;;27.10;48.80;;;;;;5027475;28;20052;-64
2022/08/14 04:11:07;;;;;;;8.52;4.60;;;27.10;48.80;;;;;;5054723;28;20087;-64
2022/08/14 04:13:38;;;;;;;7.65;4.18;;;27.10;48.80;;;;;;5026794;28;20021;-64
2022/08/14 04:16:07;;;;;;;8.32;4.57;;;27.10;48.90;;;;;;5027422;28;20535;-64
2022/08/14 04:18:33;;;;;;;8.75;4.65;;;27.10;48.90;;;;;;5025559;28;20105;-64
2022/08/14 04:20:59;;;;;;;9.40;4.75;;;27.10;48.80;;;;;;5026865;28;20128;-64
2022/08/14 04:23:25;;;;;;;7.97;4.00;;;27.00;48.80;;;;;;5023478;28;20079;-64
2022/08/14 04:25:54;;;;;;;8.52;4.60;;;27.10;49.00;;;;;;5025666;28;20379;-63
2022/08/14 04:28:20;;;;;;;7.88;4.53;;;27.00;48.90;;;;;;5027468;28;20087;-64
2022/08/14 04:30:46;;;;;;;7.88;4.22;;;27.00;48.90;;;;;;5026515;28;20397;-65
2022/08/14 04:33:13;;;;;;;8.65;4.18;;;27.00;49.00;;;;;;5025921;28;20148;-63
2022/08/14 04:35:38;;;;;;;7.95;4.30;;;27.00;49.00;;;;;;5025634;28;20028;-64
2022/08/14 04:43:38;;;;;;;7.43;4.28;;;27.00;49.00;;;;;;5027377;28;20037;-64
2022/08/14 04:46:11;;;;;;;8.00;4.32;;;27.00;49.10;;;;;;5024242;28;20029;-64
2022/08/14 04:48:37;;;;;;;9.10;4.10;;;27.00;49.40;;;;;;5025598;28;20379;-64
2022/08/14 04:51:04;;;;;;;7.60;4.32;;;27.00;49.10;;;;;;5027304;28;20091;-64
2022/08/14 04:53:30;;;;;;;6.78;4.18;;;27.00;49.10;;;;;;5026159;28;20021;-63
2022/08/14 04:55:56;;;;;;;8.80;4.60;;;27.00;49.10;;;;;;5025218;28;20049;-63
2022/08/14 04:58:28;;;;;;;6.85;4.28;;;27.00;49.20;;;;;;5021603;28;20023;-63
2022/08/14 05:00:54;;;;;;;7.97;4.28;;;27.00;49.20;;;;;;5022669;28;20040;-65
2022/08/14 05:03:21;;;;;;;8.07;4.10;;;26.90;49.10;;;;;;5022985;28;20108;-64
2022/08/14 05:05:47;;;;;;;7.00;4.15;;;27.00;49.20;;;;;;5025456;28;20104;-63
2022/08/14 05:08:14;;;;;;;7.50;4.13;;;26.90;49.20;;;;;;5022173;28;20490;-64
2022/08/14 05:10:44;;;;;;;7.35;4.13;;;27.00;49.20;;;;;;5020770;28;20571;-63
2022/08/14 05:13:11;;;;;;;7.97;4.22;;;26.90;49.20;;;;;;5025231;28;20033;-63
2022/08/14 05:15:40;;;;;;;8.02;4.00;;;26.90;49.20;;;;;;5025400;28;20034;-64
2022/08/14 05:18:11;;;;;;;7.15;3.97;;;26.90;49.30;;;;;;5023442;28;20034;-64
2022/08/14 05:20:39;;;;;;;8.10;4.15;;;26.90;49.30;;;;;;5024190;28;20039;-64
2022/08/14 05:23:06;;;;;;;6.70;3.70;;;26.90;49.30;;;;;;5020884;28;20049;-63
2022/08/14 05:25:33;;;;;;;6.50;3.88;;;26.90;49.40;;;;;;5021397;28;20079;-64
2022/08/14 05:28:18;;;;;;;6.65;3.80;;;26.90;49.40;;;;;;5024511;28;20139;-64
2022/08/14 05:30:55;;;;;;;7.18;4.20;;;26.90;49.40;;;;;;5024314;28;20087;-64
2022/08/14 05:33:23;;;;;;;7.72;4.03;;;26.90;49.50;;;;;;5021801;28;20028;-64
2022/08/14 05:35:50;;;;;;;7.70;4.28;;;26.90;49.50;;;;;;5022937;28;20048;-64
2022/08/14 05:38:17;;;;;;;7.85;4.20;;;26.90;49.50;;;;;;5022197;28;20153;-64
2022/08/14 05:40:43;;;;;;;7.38;3.85;;;26.90;49.40;;;;;;5024469;28;20029;-63
2022/08/14 05:43:08;;;;;;;6.70;3.95;;;26.90;49.50;;;;;;5024055;28;21205;-64
2022/08/14 05:45:34;;;;;;;6.97;3.90;;;26.90;49.50;;;;;;5026751;28;20026;-64
2022/08/14 05:48:04;;;;;;;5.90;3.78;;;26.80;49.50;;;;;;5028072;28;20033;-63
2022/08/14 05:50:29;;;;;;;9.73;4.38;;;26.90;49.60;;;;;;5026971;28;20079;-64
2022/08/14 05:52:55;;;;;;;7.13;3.95;;;26.80;49.50;;;;;;5028591;28;20033;-64
2022/08/14 05:55:21;;;;;;;6.93;3.95;;;26.80;49.50;;;;;;5026205;28;20098;-64
2022/08/14 05:57:53;;;;;;;7.68;4.32;;;26.80;49.50;;;;;;5026643;28;20041;-64
2022/08/14 06:00:20;;;;;;;6.40;4.05;;;26.90;49.70;;;;;;5025089;28;20024;-64
2022/08/14 06:02:46;;;;;;;7.20;4.00;;;26.80;49.60;;;;;;5027645;28;20041;-63
2022/08/14 06:05:12;;;;;;;6.82;4.25;;;26.80;49.60;;;;;;5026388;28;20037;-63
2022/08/14 06:07:37;;;;;;;6.65;4.00;;;26.80;49.60;;;;;;5028623;28;20125;-64
2022/08/14 06:10:05;;;;;;;8.57;4.28;;;26.80;49.60;;;;;;5025038;28;22331;-64
2022/08/14 06:12:30;;;;;;;6.10;3.70;;;26.80;49.70;;;;;;5027229;28;20041;-63
2022/08/14 06:14:56;;;;;;;7.10;4.32;;;26.80;49.70;;;;;;5026182;28;20437;-64
2022/08/14 06:17:22;;;;;;;6.20;3.72;;;26.80;49.60;;;;;;5027841;28;20526;-64
2022/08/14 06:19:47;;;;;;;6.60;4.00;;;26.80;49.70;;;;;;5028938;28;20561;-64
2022/08/14 06:22:13;;;;;;;6.03;3.60;;;26.80;49.70;;;;;;5028001;28;20084;-64
2022/08/14 06:24:39;;;;;;;7.15;3.80;;;26.80;49.70;;;;;;5026335;28;20028;-64
2022/08/14 06:27:04;;;;;;;7.00;3.88;;;26.80;49.70;;;;;;5027161;28;20032;-64
2022/08/14 06:29:30;;;;;;;6.30;3.60;;;26.80;49.80;;;;;;5027111;28;20043;-64
2022/08/14 06:31:57;;;;;;;8.65;4.00;;;26.80;49.90;;;;;;5021411;28;20034;-64
2022/08/14 06:34:23;;;;;;;7.15;3.72;;;26.80;49.90;;;;;;5026740;28;20049;-64
2022/08/14 06:36:48;;;;;;;6.95;3.90;;;26.80;49.80;;;;;;5027646;28;20119;-63
2022/08/14 06:39:14;;;;;;;7.20;3.85;;;26.70;49.90;;;;;;5025114;28;20034;-63
2022/08/14 06:41:40;;;;;;;6.10;3.83;;;26.80;49.90;;;;;;5029010;28;20029;-64
2022/08/14 06:44:07;;;;;;;6.75;4.07;;;26.80;50.00;;;;;;5028462;28;20108;-63
2022/08/14 06:46:33;;;;;;;7.25;3.95;;;26.70;49.90;;;;;;5026761;28;20032;-63
2022/08/14 06:48:59;;;;;;;6.95;4.07;;;26.70;49.90;;;;;;5028384;28;20108;-63
2022/08/14 06:51:24;;;;;;;6.22;3.80;;;26.70;50.00;;;;;;5027577;28;20034;-63
2022/08/14 06:53:50;;;;;;;7.75;3.90;;;26.70;50.00;;;;;;5027571;28;20033;-63
2022/08/14 06:56:15;;;;;;;6.75;3.83;;;26.70;50.00;;;;;;5026934;28;20592;-64
2022/08/14 06:58:41;;;;;;;6.88;3.55;;;26.70;50.00;;;;;;5029058;28;20498;-63
2022/08/14 07:06:38;;;;;;;6.13;3.78;;;26.70;50.00;;;;;;4984636;28;20076;-62
2022/08/14 07:09:05;;;;;;;7.40;4.10;;;26.70;50.10;;;;;;4986969;28;20054;-64
2022/08/14 07:11:30;;;;;;;6.70;3.83;;;26.70;50.10;;;;;;4985205;28;20053;-64
2022/08/14 07:13:56;;;;;;;7.30;3.75;;;26.70;50.20;;;;;;4987011;28;20030;-63
2022/08/14 07:16:22;;;;;;;6.13;3.80;;;26.70;50.20;;;;;;4979780;28;20050;-64
2022/08/14 07:18:47;;;;;;;7.28;4.05;;;26.70;50.20;;;;;;4984548;28;20117;-63
2022/08/14 07:21:14;;;;;;;6.22;3.70;;;26.70;50.40;;;;;;4985636;28;20553;-64
2022/08/14 07:23:40;;;;;;;7.07;3.72;;;26.70;50.30;;;;;;4981319;28;20039;-64
2022/08/14 07:26:06;;;;;;;5.90;3.55;;;26.70;50.30;;;;;;4970855;28;20105;-64
2022/08/14 07:28:36;;;;;;;8.23;4.03;;;26.70;50.30;;;;;;4984880;28;20037;-63
2022/08/14 07:31:03;;;;;;;6.18;4.00;;;26.70;50.30;;;;;;4983792;28;20031;-64
2022/08/14 07:33:31;;;;;;;6.47;3.80;;;26.70;50.30;;;;;;4981600;28;20029;-64
2022/08/14 07:36:00;;;;;;;6.90;3.88;;;26.70;51.40;;;;;;4983618;28;20092;-61
2022/08/14 07:38:26;;;;;;;7.55;3.95;;;26.60;50.30;;;;;;4982740;28;20034;-62
2022/08/14 07:40:52;;;;;;;5.65;3.60;;;26.70;50.30;;;;;;4991641;28;20050;-63
2022/08/14 07:43:18;;;;;;;7.00;3.67;;;26.70;50.30;;;;;;5026836;28;20022;-63
2022/08/14 07:45:44;;;;;;;6.43;3.70;;;26.70;50.30;;;;;;5022999;28;20508;-64
2022/08/14 07:48:09;;;;;;;10.77;4.20;;;26.70;50.40;;;;;;5032999;28;20116;-62
2022/08/14 07:50:35;;;;;;;9.50;5.22;;;26.70;50.50;;;;;;5024475;28;20034;-62
2022/08/14 07:53:01;;;;;;;10.10;5.72;;;26.60;51.70;;;;;;5027717;28;20107;-63
2022/08/14 07:55:27;;;;;;;10.00;5.18;;;26.50;52.90;;;;;;5026562;28;20045;-63
2022/08/14 07:57:53;;;;;;;11.93;5.47;;;26.40;53.00;;;;;;5026477;28;20029;-63
2022/08/14 08:00:21;;;;;;;8.27;5.18;;;26.40;53.50;;;;;;5024619;28;20033;-63
2022/08/14 08:02:48;;;;;;;10.05;5.53;;;26.40;53.80;;;;;;5024577;28;20498;-63
2022/08/14 08:05:14;;;;;;;8.70;5.25;;;26.40;53.90;;;;;;5025025;28;20030;-63
2022/08/14 08:07:41;;;;;;;10.05;5.40;;;26.30;54.50;;;;;;5021626;28;20052;-63
2022/08/14 08:10:31;;;;;;;11.63;7.05;;;26.40;54.00;;;;;;5019794;28;20029;-63
2022/08/14 08:13:01;;;;;;;11.38;7.03;;;26.20;55.30;;;;;;5026134;28;20071;-62
2022/08/14 08:15:32;;;;;;;10.35;7.03;;;26.20;56.20;;;;;;5021957;28;20021;-62
2022/08/14 08:18:01;;;;;;;11.50;7.00;;;26.10;56.10;;;;;;5024654;28;20036;-63
2022/08/14 08:20:27;;;;;;;10.70;6.82;;;26.10;56.50;;;;;;5020871;28;20096;-62
2022/08/14 08:22:57;;;;;;;11.55;7.00;;;26.10;56.80;;;;;;5024543;28;20028;-62
2022/08/14 08:25:29;;;;;;;12.88;6.70;;;26.10;57.00;;;;;;5024978;28;22672;-63
2022/08/14 08:27:59;;;;;;;10.85;6.43;;;26.10;57.00;;;;;;5022163;28;20099;-62
2022/08/14 08:30:26;;;;;;;12.35;6.45;;;26.10;56.70;;;;;;5023292;28;20084;-62
2022/08/14 08:32:53;;;;;;;11.48;7.03;;;26.10;56.60;;;;;;5027377;28;20119;-62
2022/08/14 08:35:24;;;;;;;13.10;6.68;;;26.10;56.80;;;;;;5023407;28;20101;-62
2022/08/14 08:37:50;;;;;;;11.25;6.68;;;26.10;57.50;;;;;;5024682;28;20025;-62
2022/08/14 08:40:23;;;;;;;10.65;7.45;;;26.10;57.20;;;;;;5027222;28;20056;-62
2022/08/14 08:42:49;;;;;;;11.77;6.95;;;26.10;57.80;;;;;;5027131;28;20040;-64
2022/08/14 08:45:15;;;;;;;10.13;6.30;;;26.10;57.60;;;;;;5026174;28;20183;-63
2022/08/14 08:47:41;;;;;;;10.07;5.97;;;26.10;57.20;;;;;;5022833;28;20021;-63
2022/08/14 08:50:22;;;;;;;11.80;6.50;;;26.00;57.20;;;;;;5025808;28;20034;-62
2022/08/14 08:52:53;;;;;;;10.63;6.30;;;26.00;57.10;;;;;;5021753;28;20042;-62
2022/08/14 08:55:49;;;;;;;8.50;5.72;;;26.00;56.80;;;;;;5025413;28;20143;-62
2022/08/14 08:58:18;;;;;;;8.82;5.70;;;26.10;56.70;;;;;;5025597;28;20080;-62
2022/08/14 09:00:49;;;;;;;11.07;6.20;;;26.10;57.00;;;;;;5030007;28;20071;-62
2022/08/14 09:03:18;;;;;;;10.85;6.55;;;26.10;56.70;;;;;;5025834;28;20032;-62
2022/08/14 09:05:54;;;;;;;10.93;5.93;;;26.00;56.60;;;;;;5027906;28;20030;-63
2022/08/14 09:08:21;;;;;;;9.52;5.70;;;26.10;56.60;;;;;;5025961;28;20121;-64
2022/08/14 09:10:47;;;;;;;10.70;5.70;;;26.10;56.50;;;;;;5025272;28;20116;-64
2022/08/14 09:13:14;;;;;;;12.48;5.80;;;26.10;56.30;;;;;;5024232;28;20660;-64
2022/08/14 09:15:42;;;;;;;10.60;6.32;;;26.20;56.00;;;;;;5024727;28;20129;-63
2022/08/14 09:18:08;;;;;;;12.60;5.90;;;26.20;55.90;;;;;;5025782;28;21718;-62
2022/08/14 09:20:33;;;;;;;14.65;6.80;;;26.20;56.10;;;;;;5022529;28;20052;-61
2022/08/14 09:22:59;;;;;;;11.57;6.85;;;26.10;56.50;;;;;;5055546;28;20497;-62
2022/08/14 09:25:25;;;;;;;9.35;6.60;;;26.00;55.70;;;;;;5023635;28;20397;-61
2022/08/14 09:27:53;;;;;;;10.05;6.95;;;26.00;56.20;;;;;;5024908;28;20100;-61
2022/08/14 09:30:18;;;;;;;14.18;7.18;;;25.90;56.20;;;;;;5023988;28;20033;-62
2022/08/14 09:33:02;;;;;;;11.52;6.78;;;25.80;56.20;;;;;;5029296;28;20030;-61
2022/08/14 09:35:43;;;;;;;12.05;7.47;;;25.80;56.20;;;;;;5025045;28;20052;-63
2022/08/14 09:38:32;;;;;;;11.13;7.05;;;25.80;56.30;;;;;;5022183;28;20040;-61
2022/08/14 09:41:17;;;;;;;10.30;7.25;;;25.80;56.70;;;;;;5024240;28;20021;-64
2022/08/14 09:44:08;;;;;;;10.27;7.05;;;25.80;56.80;;;;;;5022888;28;20029;-62
2022/08/14 09:46:34;;;;;;;14.13;7.72;;;25.80;56.90;;;;;;5029968;28;20509;-62
2022/08/14 09:49:01;;;;;;;13.25;8.13;;;25.80;56.90;;;;;;5021893;28;20030;-63
2022/08/14 09:51:26;;;;;;;12.45;7.50;;;25.80;59.70;;;;;;5024058;28;20030;-62
2022/08/14 09:54:06;;;;;;;14.65;7.43;;;25.80;59.10;;;;;;5023403;28;20116;-62
2022/08/14 09:56:49;;;;;;;15.05;7.43;;;25.70;57.70;;;;;;5021927;28;20045;-61
2022/08/14 09:59:20;;;;;;;12.65;7.85;;;25.70;57.80;;;;;;5020146;28;20517;-61
2022/08/14 10:01:47;;;;;;;15.85;7.57;;;25.70;58.30;;;;;;5023163;28;20104;-62
2022/08/14 10:04:23;;;;;;;11.63;7.10;;;25.80;58.20;;;;;;5020566;28;20064;-63
2022/08/14 10:06:50;;;;;;;12.93;7.05;;;25.80;57.90;;;;;;5020704;28;20928;-62
2022/08/14 10:09:16;;;;;;;12.93;7.07;;;25.80;57.90;;;;;;5048965;28;20029;-62
2022/08/14 10:11:51;;;;;;;11.15;6.88;;;25.80;57.60;;;;;;5022432;28;20041;-61
2022/08/14 10:14:18;;;;;;;12.45;6.93;;;25.80;57.60;;;;;;5034056;28;20095;-62
2022/08/14 10:16:49;;;;;;;14.05;6.97;;;25.90;57.60;;;;;;5022714;28;20498;-61
2022/08/14 10:19:17;;;;;;;13.50;7.20;;;25.90;57.60;;;;;;5023471;28;20022;-61
2022/08/14 10:21:54;;;;;;;10.73;6.75;;;26.00;57.70;;;;;;5020805;28;20040;-61
2022/08/14 10:24:24;;;;;;;12.13;7.00;;;26.00;57.00;;;;;;5023515;28;20033;-60
2022/08/14 10:26:54;;;;;;;14.30;6.90;;;26.00;56.60;;;;;;5023344;28;20109;-61
2022/08/14 10:29:39;;;;;;;11.93;6.97;;;26.00;56.70;;;;;;5020058;28;20173;-62
2022/08/14 10:32:08;;;;;;;12.63;6.80;;;26.00;56.70;;;;;;5012604;28;20098;-62
2022/08/14 10:34:35;;;;;;;12.27;6.78;;;26.00;56.90;;;;;;5026339;28;20037;-61
2022/08/14 10:37:11;;;;;;;14.32;6.60;;;26.00;56.80;;;;;;5025963;28;20036;-63
2022/08/14 10:39:40;;;;;;;10.95;6.60;;;26.00;56.90;;;;;;5023294;28;20022;-63
2022/08/14 10:42:09;;;;;;;12.52;6.57;;;26.00;56.40;;;;;;5050276;28;20033;-65
2022/08/14 10:44:37;;;;;;;13.45;6.07;;;26.00;56.30;;;;;;5025247;28;20018;-62
2022/08/14 10:47:09;;;;;;;9.68;6.55;;;26.10;56.50;;;;;;5024840;28;20067;-61
2022/08/14 10:49:46;;;;;;;12.13;6.57;;;26.10;56.10;;;;;;5024852;28;20049;-63
2022/08/14 10:52:20;;;;;;;9.38;5.93;;;26.10;55.90;;;;;;5022986;28;20040;-61
2022/08/14 10:54:47;;;;;;;14.32;7.32;;;26.10;56.20;;;;;;5027251;28;20455;-62
2022/08/14 10:57:23;;;;;;;12.02;7.30;;;26.00;56.10;;;;;;5028189;28;20049;-60
2022/08/14 10:59:58;;;;;;;15.63;8.57;;;26.00;56.00;;;;;;5026203;28;20036;-60
2022/08/14 11:02:29;;;;;;;15.57;8.63;;;25.90;55.80;;;;;;5023781;28;20022;-62
2022/08/14 11:04:59;;;;;;;19.90;8.93;;;25.70;55.10;;;;;;5024775;28;20029;-62
2022/08/14 11:07:25;;;;;;;16.80;8.10;;;25.60;55.40;;;;;;5025374;28;20013;-61
2022/08/14 11:09:58;;;;;;;16.15;8.13;;;25.60;55.60;;;;;;5027699;28;20083;-61
2022/08/14 11:12:25;;;;;;;16.80;8.07;;;25.60;55.60;;;;;;5022813;28;20160;-61
2022/08/14 11:14:59;;;;;;;18.83;8.27;;;25.60;55.50;;;;;;5024422;28;20375;-59
2022/08/14 11:17:27;;;;;;;17.02;7.45;;;25.60;55.50;;;;;;5022592;28;20026;-61
2022/08/14 11:19:56;;;;;;;17.35;7.60;;;25.60;55.30;;;;;;5026956;28;20742;-60
2022/08/14 11:22:23;;;;;;;19.45;7.10;;;25.60;55.20;;;;;;5022689;28;20634;-61
2022/08/14 11:24:49;;;;;;;15.48;7.28;;;25.60;55.00;;;;;;5027492;28;20056;-61
2022/08/14 11:27:15;;;;;;;20.88;7.80;;;25.70;54.80;;;;;;5027629;28;20029;-60
2022/08/14 11:29:42;;;;;;;16.00;7.38;;;25.70;54.80;;;;;;5023927;28;20584;-60
2022/08/14 11:32:08;;;;;;;15.85;7.50;;;25.60;54.50;;;;;;5026392;28;20553;-59
2022/08/14 11:34:37;;;;;;;16.02;7.70;;;25.70;54.60;;;;;;5026530;28;20040;-59
2022/08/14 11:37:11;;;;;;;14.77;7.93;;;25.60;54.50;;;;;;5024494;28;20026;-60
2022/08/14 11:39:37;;;;;;;;;;;25.70;54.40;;;;;;4992727;28;20043;-59
2022/08/14 11:42:06;;;;;;;14.30;7.38;;;25.60;54.30;;;;;;5025540;28;20392;-59
2022/08/14 11:44:32;;;;;;;15.82;7.68;;;25.70;54.30;;;;;;5024596;28;20029;-60
2022/08/14 11:46:57;;;;;;;16.98;7.32;;;25.70;54.20;;;;;;5024068;28;20112;-60
2022/08/14 11:49:27;;;;;;;17.23;7.70;;;25.70;53.90;;;;;;5026624;28;20119;-60
2022/08/14 11:51:53;;;;;;;16.63;7.35;;;25.70;54.00;;;;;;5024519;28;20038;-66
2022/08/14 11:54:20;;;;;;;16.60;7.15;;;25.70;54.00;;;;;;5025583;28;20044;-66
2022/08/14 11:56:48;;;;;;;15.43;7.68;;;25.80;54.10;;;;;;5025732;28;20053;-66
2022/08/14 11:59:20;;;;;;;16.10;7.50;;;25.70;53.50;;;;;;5020345;28;20497;-66
2022/08/14 12:01:45;;;;;;;14.80;7.60;;;25.70;53.00;;;;;;5025691;28;20036;-67
2022/08/14 12:04:16;;;;;;;15.88;7.40;;;25.70;53.00;;;;;;5023992;28;20037;-67
2022/08/14 12:06:54;;;;;;;19.52;7.47;;;25.70;53.00;;;;;;5028590;28;20018;-65
2022/08/14 12:09:39;;;;;;;16.35;7.50;;;25.70;52.90;;;;;;5025236;28;20116;-67
2022/08/14 12:12:20;;;;;;;17.90;7.45;;;25.60;52.80;;;;;;5024249;28;20090;-67
2022/08/14 12:14:59;;;;;;;13.85;7.00;;;25.70;52.90;;;;;;5051368;28;20071;-65
2022/08/14 12:17:32;;;;;;;14.32;6.28;;;25.60;53.00;;;;;;5025255;28;20506;-65
2022/08/14 12:20:03;;;;;;;15.13;6.60;;;25.70;53.00;;;;;;5023654;28;20455;-64
2022/08/14 12:22:33;;;;;;;15.18;6.22;;;25.80;53.00;;;;;;5024020;28;20554;-65
2022/08/14 12:24:59;;;;;;;13.73;6.20;;;25.80;52.90;;;;;;5024437;28;20029;-64
2022/08/14 12:27:35;;;;;;;13.55;6.65;;;25.80;52.90;;;;;;5027284;28;20088;-64
2022/08/14 12:30:01;;;;;;;13.07;5.95;;;25.80;52.90;;;;;;5024484;28;20064;-64
2022/08/14 12:32:36;;;;;;;16.73;6.43;;;25.80;53.00;;;;;;5025405;28;20030;-64
2022/08/14 12:35:02;;;;;;;20.02;6.28;;;25.80;53.00;;;;;;5032717;28;20076;-64
2022/08/14 12:37:29;;;;;;;18.05;6.55;;;25.90;53.10;;;;;;5025527;28;20410;-65
2022/08/14 12:39:54;;;;;;;20.20;6.38;;;25.90;53.00;;;;;;5027057;28;20043;-64
2022/08/14 12:42:20;;;;;;;12.98;6.10;;;25.90;53.00;;;;;;5025902;28;20401;-65
2022/08/14 12:44:47;;;;;;;14.50;6.22;;;25.90;52.90;;;;;;5035227;28;20053;-64
2022/08/14 12:47:16;;;;;;;15.38;6.22;;;25.90;52.90;;;;;;5024932;28;20029;-63
2022/08/14 12:49:51;;;;;;;15.82;6.80;;;26.00;52.90;;;;;;5026735;28;20557;-63
2022/08/14 12:52:25;;;;;;;15.82;6.60;;;25.90;53.10;;;;;;5038086;28;20567;-64
2022/08/14 12:55:00;;;;;;;;;;;26.00;53.10;;;;;;5025166;28;20063;-63
2022/08/14 12:57:53;;;;;;;14.18;6.35;;;26.00;53.20;;;;;;5025692;28;19917;-64
2022/08/14 13:00:21;;;;;;;14.73;6.03;;;26.00;53.00;;;;;;5022578;28;20146;-63
2022/08/14 13:02:52;;;;;;;16.55;6.70;;;26.00;52.90;;;;;;5026626;28;20029;-63